sensor_id;sensor_type;location;lat;lon;timestamp;P1;durP1;ratioP1;P2;durP2;ratioP2
66946;SDS011;53853;51.982;5.928;2022-08-19T00:02:13;4.13;;;3.72;;
66946;SDS011;53853;51.982;5.928;2022-08-19T00:04:42;4.60;;;3.67;;
66946;SDS011;53853;51.982;5.928;2022-08-19T00:07:16;5.07;;;3.70;;
66946;SDS011;53853;51.982;5.928;2022-08-19T00:09:46;4.35;;;3.95;;
66946;SDS011;53853;51.982;5.928;2022-08-19T00:12:16;5.05;;;4.28;;
66946;SDS011;53853;51.982;5.928;2022-08-19T00:14:46;4.60;;;3.85;;
66946;SDS011;53853;51.982;5.928;2022-08-19T00:17:16;6.20;;;4.32;;
66946;SDS011;53853;51.982;5.928;2022-08-19T00:19:46;5.13;;;4.63;;
66946;SDS011;53853;51.982;5.928;2022-08-19T00:22:18;4.18;;;3.78;;
66946;SDS011;53853;51.982;5.928;2022-08-19T00:24:48;4.28;;;3.88;;
66946;SDS011;53853;51.982;5.928;2022-08-19T00:27:18;5.18;;;4.10;;
66946;SDS011;53853;51.982;5.928;2022-08-19T00:29:47;4.78;;;3.80;;
66946;SDS011;53853;51.982;5.928;2022-08-19T00:32:17;4.85;;;4.35;;
66946;SDS011;53853;51.982;5.928;2022-08-19T00:34:47;6.68;;;4.60;;
66946;SDS011;53853;51.982;5.928;2022-08-19T00:37:22;4.97;;;4.47;;
66946;SDS011;53853;51.982;5.928;2022-08-19T00:42:22;6.07;;;4.10;;
66946;SDS011;53853;51.982;5.928;2022-08-19T00:44:54;5.53;;;5.03;;
66946;SDS011;53853;51.982;5.928;2022-08-19T00:47:23;5.00;;;4.20;;
66946;SDS011;53853;51.982;5.928;2022-08-19T00:49:55;6.60;;;5.60;;
66946;SDS011;53853;51.982;5.928;2022-08-19T00:52:29;6.50;;;5.75;;
66946;SDS011;53853;51.982;5.928;2022-08-19T00:55:03;6.43;;;5.82;;
66946;SDS011;53853;51.982;5.928;2022-08-19T00:57:36;6.05;;;5.45;;
66946;SDS011;53853;51.982;5.928;2022-08-19T01:00:12;5.72;;;5.00;;
66946;SDS011;53853;51.982;5.928;2022-08-19T01:02:44;6.88;;;6.20;;
66946;SDS011;53853;51.982;5.928;2022-08-19T01:05:16;6.22;;;5.63;;
66946;SDS011;53853;51.982;5.928;2022-08-19T01:07:51;6.68;;;4.40;;
66946;SDS011;53853;51.982;5.928;2022-08-19T01:10:25;5.35;;;4.85;;
66946;SDS011;53853;51.982;5.928;2022-08-19T01:12:58;5.50;;;4.90;;
66946;SDS011;53853;51.982;5.928;2022-08-19T01:15:30;6.72;;;6.03;;
66946;SDS011;53853;51.982;5.928;2022-08-19T01:18:04;5.43;;;4.93;;
66946;SDS011;53853;51.982;5.928;2022-08-19T01:20:38;6.72;;;6.13;;
66946;SDS011;53853;51.982;5.928;2022-08-19T01:23:13;7.37;;;6.67;;
66946;SDS011;53853;51.982;5.928;2022-08-19T01:28:16;7.45;;;6.47;;
66946;SDS011;53853;51.982;5.928;2022-08-19T01:30:48;6.00;;;5.40;;
66946;SDS011;53853;51.982;5.928;2022-08-19T01:33:18;7.53;;;6.82;;
66946;SDS011;53853;51.982;5.928;2022-08-19T01:35:48;7.78;;;7.07;;
66946;SDS011;53853;51.982;5.928;2022-08-19T01:38:22;8.05;;;7.15;;
66946;SDS011;53853;51.982;5.928;2022-08-19T01:40:57;8.60;;;7.70;;
66946;SDS011;53853;51.982;5.928;2022-08-19T01:43:27;6.88;;;5.82;;
66946;SDS011;53853;51.982;5.928;2022-08-19T01:45:56;7.20;;;6.25;;
66946;SDS011;53853;51.982;5.928;2022-08-19T01:48:26;7.57;;;6.88;;
66946;SDS011;53853;51.982;5.928;2022-08-19T01:51:00;7.75;;;6.93;;
66946;SDS011;53853;51.982;5.928;2022-08-19T01:53:33;8.27;;;7.47;;
66946;SDS011;53853;51.982;5.928;2022-08-19T01:56:04;8.65;;;7.55;;
66946;SDS011;53853;51.982;5.928;2022-08-19T01:58:36;9.20;;;7.60;;
66946;SDS011;53853;51.982;5.928;2022-08-19T02:01:11;8.20;;;7.40;;
66946;SDS011;53853;51.982;5.928;2022-08-19T02:03:42;9.32;;;7.50;;
66946;SDS011;53853;51.982;5.928;2022-08-19T02:06:12;8.43;;;6.80;;
66946;SDS011;53853;51.982;5.928;2022-08-19T02:08:45;7.75;;;6.35;;
66946;SDS011;53853;51.982;5.928;2022-08-19T02:11:19;6.88;;;6.18;;
66946;SDS011;53853;51.982;5.928;2022-08-19T02:13:52;6.82;;;6.13;;
66946;SDS011;53853;51.982;5.928;2022-08-19T02:16:23;4.88;;;4.28;;
66946;SDS011;53853;51.982;5.928;2022-08-19T02:18:52;6.95;;;5.95;;
66946;SDS011;53853;51.982;5.928;2022-08-19T02:21:23;6.43;;;5.82;;
66946;SDS011;53853;51.982;5.928;2022-08-19T02:23:56;6.72;;;6.13;;
66946;SDS011;53853;51.982;5.928;2022-08-19T02:26:26;8.13;;;7.33;;
66946;SDS011;53853;51.982;5.928;2022-08-19T02:28:56;6.72;;;5.47;;
66946;SDS011;53853;51.982;5.928;2022-08-19T02:31:26;6.07;;;5.30;;
66946;SDS011;53853;51.982;5.928;2022-08-19T02:33:56;7.70;;;6.88;;
66946;SDS011;53853;51.982;5.928;2022-08-19T02:36:26;8.73;;;7.82;;
66946;SDS011;53853;51.982;5.928;2022-08-19T02:38:59;9.57;;;7.07;;
66946;SDS011;53853;51.982;5.928;2022-08-19T02:41:28;8.80;;;7.90;;
66946;SDS011;53853;51.982;5.928;2022-08-19T02:44:00;6.90;;;6.20;;
66946;SDS011;53853;51.982;5.928;2022-08-19T02:46:32;8.15;;;7.35;;
66946;SDS011;53853;51.982;5.928;2022-08-19T02:49:04;7.82;;;7.03;;
66946;SDS011;53853;51.982;5.928;2022-08-19T02:51:36;9.02;;;7.13;;
66946;SDS011;53853;51.982;5.928;2022-08-19T02:54:11;8.90;;;7.32;;
66946;SDS011;53853;51.982;5.928;2022-08-19T02:56:43;8.57;;;7.68;;
66946;SDS011;53853;51.982;5.928;2022-08-19T02:59:13;8.57;;;7.72;;
66946;SDS011;53853;51.982;5.928;2022-08-19T03:01:43;7.75;;;6.95;;
66946;SDS011;53853;51.982;5.928;2022-08-19T03:04:14;9.27;;;8.38;;
66946;SDS011;53853;51.982;5.928;2022-08-19T03:06:45;8.60;;;7.75;;
66946;SDS011;53853;51.982;5.928;2022-08-19T03:09:19;9.38;;;8.48;;
66946;SDS011;53853;51.982;5.928;2022-08-19T03:11:49;7.30;;;6.60;;
66946;SDS011;53853;51.982;5.928;2022-08-19T03:14:19;8.48;;;7.60;;
66946;SDS011;53853;51.982;5.928;2022-08-19T03:16:49;8.45;;;7.57;;
66946;SDS011;53853;51.982;5.928;2022-08-19T03:19:20;9.20;;;8.27;;
66946;SDS011;53853;51.982;5.928;2022-08-19T03:21:51;9.43;;;8.18;;
66946;SDS011;53853;51.982;5.928;2022-08-19T03:24:23;9.68;;;8.77;;
66946;SDS011;53853;51.982;5.928;2022-08-19T03:26:54;9.93;;;8.93;;
66946;SDS011;53853;51.982;5.928;2022-08-19T03:29:25;10.07;;;8.95;;
66946;SDS011;53853;51.982;5.928;2022-08-19T03:31:56;9.43;;;8.52;;
66946;SDS011;53853;51.982;5.928;2022-08-19T03:34:27;8.75;;;7.85;;
66946;SDS011;53853;51.982;5.928;2022-08-19T03:36:59;8.18;;;7.38;;
66946;SDS011;53853;51.982;5.928;2022-08-19T03:39:36;10.38;;;9.38;;
66946;SDS011;53853;51.982;5.928;2022-08-19T03:42:08;8.50;;;7.20;;
66946;SDS011;53853;51.982;5.928;2022-08-19T03:44:38;6.93;;;6.28;;
66946;SDS011;53853;51.982;5.928;2022-08-19T03:47:10;9.88;;;8.98;;
66946;SDS011;53853;51.982;5.928;2022-08-19T03:49:42;9.88;;;8.88;;
66946;SDS011;53853;51.982;5.928;2022-08-19T03:52:13;10.13;;;9.13;;
66946;SDS011;53853;51.982;5.928;2022-08-19T03:54:45;10.15;;;9.07;;
66946;SDS011;53853;51.982;5.928;2022-08-19T03:57:15;9.48;;;8.57;;
66946;SDS011;53853;51.982;5.928;2022-08-19T03:59:44;10.07;;;9.07;;
66946;SDS011;53853;51.982;5.928;2022-08-19T04:02:14;9.40;;;8.52;;
66946;SDS011;53853;51.982;5.928;2022-08-19T04:04:44;9.48;;;8.48;;
66946;SDS011;53853;51.982;5.928;2022-08-19T04:07:14;8.32;;;7.32;;
66946;SDS011;53853;51.982;5.928;2022-08-19T04:09:49;8.48;;;7.68;;
66946;SDS011;53853;51.982;5.928;2022-08-19T04:12:19;10.38;;;9.38;;
66946;SDS011;53853;51.982;5.928;2022-08-19T04:14:49;10.15;;;8.60;;
66946;SDS011;53853;51.982;5.928;2022-08-19T04:17:19;9.80;;;8.80;;
66946;SDS011;53853;51.982;5.928;2022-08-19T04:19:49;10.50;;;9.40;;
66946;SDS011;53853;51.982;5.928;2022-08-19T04:22:19;9.65;;;8.73;;
66946;SDS011;53853;51.982;5.928;2022-08-19T04:24:51;9.93;;;9.00;;
66946;SDS011;53853;51.982;5.928;2022-08-19T04:27:21;8.82;;;7.93;;
66946;SDS011;53853;51.982;5.928;2022-08-19T04:29:51;11.15;;;10.05;;
66946;SDS011;53853;51.982;5.928;2022-08-19T04:32:22;9.02;;;8.23;;
66946;SDS011;53853;51.982;5.928;2022-08-19T04:34:51;10.23;;;9.05;;
66946;SDS011;53853;51.982;5.928;2022-08-19T04:37:25;10.43;;;9.43;;
66946;SDS011;53853;51.982;5.928;2022-08-19T04:40:01;9.65;;;8.65;;
66946;SDS011;53853;51.982;5.928;2022-08-19T04:42:45;10.18;;;9.07;;
66946;SDS011;53853;51.982;5.928;2022-08-19T04:45:15;10.32;;;9.25;;
66946;SDS011;53853;51.982;5.928;2022-08-19T04:47:46;10.35;;;9.27;;
66946;SDS011;53853;51.982;5.928;2022-08-19T04:50:15;11.07;;;9.98;;
66946;SDS011;53853;51.982;5.928;2022-08-19T04:52:45;11.23;;;10.13;;
66946;SDS011;53853;51.982;5.928;2022-08-19T04:55:21;12.48;;;11.18;;
66946;SDS011;53853;51.982;5.928;2022-08-19T04:57:51;10.80;;;9.80;;
66946;SDS011;53853;51.982;5.928;2022-08-19T05:00:21;10.98;;;9.25;;
66946;SDS011;53853;51.982;5.928;2022-08-19T05:02:51;11.73;;;10.30;;
66946;SDS011;53853;51.982;5.928;2022-08-19T05:05:21;9.93;;;8.20;;
66946;SDS011;53853;51.982;5.928;2022-08-19T05:07:51;10.43;;;8.43;;
66946;SDS011;53853;51.982;5.928;2022-08-19T05:10:24;10.30;;;8.75;;
66946;SDS011;53853;51.982;5.928;2022-08-19T05:12:54;10.27;;;9.20;;
66946;SDS011;53853;51.982;5.928;2022-08-19T05:15:24;10.20;;;9.20;;
66946;SDS011;53853;51.982;5.928;2022-08-19T05:17:54;9.23;;;8.30;;
66946;SDS011;53853;51.982;5.928;2022-08-19T05:20:37;9.43;;;8.52;;
66946;SDS011;53853;51.982;5.928;2022-08-19T05:23:19;11.00;;;8.73;;
66946;SDS011;53853;51.982;5.928;2022-08-19T05:25:52;8.93;;;8.02;;
66946;SDS011;53853;51.982;5.928;2022-08-19T05:28:21;10.50;;;9.10;;
66946;SDS011;53853;51.982;5.928;2022-08-19T05:30:51;8.95;;;8.05;;
66946;SDS011;53853;51.982;5.928;2022-08-19T05:33:21;8.43;;;7.38;;
66946;SDS011;53853;51.982;5.928;2022-08-19T05:35:51;8.48;;;7.57;;
66946;SDS011;53853;51.982;5.928;2022-08-19T05:38:22;9.48;;;8.57;;
66946;SDS011;53853;51.982;5.928;2022-08-19T05:40:55;10.63;;;8.95;;
66946;SDS011;53853;51.982;5.928;2022-08-19T05:43:25;10.55;;;8.88;;
66946;SDS011;53853;51.982;5.928;2022-08-19T05:45:55;10.05;;;9.05;;
66946;SDS011;53853;51.982;5.928;2022-08-19T05:48:25;10.00;;;9.00;;
66946;SDS011;53853;51.982;5.928;2022-08-19T05:50:55;10.35;;;8.93;;
66946;SDS011;53853;51.982;5.928;2022-08-19T05:53:25;10.10;;;9.10;;
66946;SDS011;53853;51.982;5.928;2022-08-19T05:55:58;9.25;;;8.30;;
66946;SDS011;53853;51.982;5.928;2022-08-19T05:58:32;11.13;;;9.65;;
66946;SDS011;53853;51.982;5.928;2022-08-19T06:01:03;9.07;;;8.18;;
66946;SDS011;53853;51.982;5.928;2022-08-19T06:03:38;10.63;;;9.63;;
66946;SDS011;53853;51.982;5.928;2022-08-19T06:06:09;12.18;;;11.07;;
66946;SDS011;53853;51.982;5.928;2022-08-19T06:08:41;14.30;;;12.88;;
66946;SDS011;53853;51.982;5.928;2022-08-19T06:11:20;16.50;;;15.00;;
66946;SDS011;53853;51.982;5.928;2022-08-19T06:13:52;14.93;;;13.32;;
66946;SDS011;53853;51.982;5.928;2022-08-19T06:16:23;13.52;;;12.10;;
66946;SDS011;53853;51.982;5.928;2022-08-19T06:18:54;19.00;;;17.05;;
66946;SDS011;53853;51.982;5.928;2022-08-19T06:21:26;24.58;;;22.30;;
66946;SDS011;53853;51.982;5.928;2022-08-19T06:23:57;22.52;;;19.88;;
66946;SDS011;53853;51.982;5.928;2022-08-19T06:26:30;17.10;;;15.50;;
66946;SDS011;53853;51.982;5.928;2022-08-19T06:29:01;15.68;;;14.07;;
66946;SDS011;53853;51.982;5.928;2022-08-19T06:31:32;18.95;;;17.05;;
66946;SDS011;53853;51.982;5.928;2022-08-19T06:34:04;21.23;;;19.15;;
66946;SDS011;53853;51.982;5.928;2022-08-19T06:36:36;17.20;;;15.52;;
66946;SDS011;53853;51.982;5.928;2022-08-19T06:39:09;18.85;;;17.00;;
66946;SDS011;53853;51.982;5.928;2022-08-19T06:41:44;19.10;;;17.10;;
66946;SDS011;53853;51.982;5.928;2022-08-19T06:44:17;22.48;;;20.38;;
66946;SDS011;53853;51.982;5.928;2022-08-19T06:46:47;29.63;;;26.60;;
66946;SDS011;53853;51.982;5.928;2022-08-19T06:49:17;24.90;;;22.42;;
66946;SDS011;53853;51.982;5.928;2022-08-19T06:51:47;23.33;;;21.02;;
66946;SDS011;53853;51.982;5.928;2022-08-19T06:54:18;31.05;;;26.55;;
66946;SDS011;53853;51.982;5.928;2022-08-19T06:56:51;40.60;;;33.38;;
66946;SDS011;53853;51.982;5.928;2022-08-19T06:59:22;32.10;;;26.80;;
66946;SDS011;53853;51.982;5.928;2022-08-19T07:01:55;25.67;;;22.87;;
66946;SDS011;53853;51.982;5.928;2022-08-19T07:04:26;45.60;;;37.70;;
66946;SDS011;53853;51.982;5.928;2022-08-19T07:07:00;48.33;;;36.97;;
66946;SDS011;53853;51.982;5.928;2022-08-19T07:09:33;42.17;;;35.72;;
66946;SDS011;53853;51.982;5.928;2022-08-19T07:12:08;54.00;;;41.90;;
66946;SDS011;53853;51.982;5.928;2022-08-19T07:14:41;36.00;;;30.88;;
66946;SDS011;53853;51.982;5.928;2022-08-19T07:17:14;46.85;;;36.67;;
66946;SDS011;53853;51.982;5.928;2022-08-19T07:19:44;36.75;;;29.90;;
66946;SDS011;53853;51.982;5.928;2022-08-19T07:22:14;51.67;;;37.80;;
66946;SDS011;53853;51.982;5.928;2022-08-19T07:24:46;42.88;;;33.67;;
66946;SDS011;53853;51.982;5.928;2022-08-19T07:27:18;49.75;;;40.17;;
66946;SDS011;53853;51.982;5.928;2022-08-19T07:29:48;39.75;;;29.33;;
66946;SDS011;53853;51.982;5.928;2022-08-19T07:32:18;46.97;;;36.30;;
66946;SDS011;53853;51.982;5.928;2022-08-19T07:34:48;32.97;;;26.98;;
66946;SDS011;53853;51.982;5.928;2022-08-19T07:37:18;47.42;;;39.05;;
66946;SDS011;53853;51.982;5.928;2022-08-19T07:39:48;48.58;;;37.58;;
66946;SDS011;53853;51.982;5.928;2022-08-19T07:42:20;45.53;;;35.00;;
66946;SDS011;53853;51.982;5.928;2022-08-19T07:44:50;51.50;;;41.47;;
66946;SDS011;53853;51.982;5.928;2022-08-19T07:47:20;53.20;;;40.45;;
66946;SDS011;53853;51.982;5.928;2022-08-19T07:49:50;61.50;;;49.25;;
66946;SDS011;53853;51.982;5.928;2022-08-19T07:52:20;73.93;;;52.83;;
66946;SDS011;53853;51.982;5.928;2022-08-19T07:54:49;45.70;;;38.08;;
66946;SDS011;53853;51.982;5.928;2022-08-19T07:57:22;51.55;;;41.83;;
66946;SDS011;53853;51.982;5.928;2022-08-19T07:59:52;56.72;;;44.13;;
66946;SDS011;53853;51.982;5.928;2022-08-19T08:02:21;57.85;;;45.67;;
66946;SDS011;53853;51.982;5.928;2022-08-19T08:04:51;50.17;;;41.05;;
66946;SDS011;53853;51.982;5.928;2022-08-19T08:07:34;46.05;;;38.35;;
66946;SDS011;53853;51.982;5.928;2022-08-19T08:10:16;46.00;;;34.97;;
66946;SDS011;53853;51.982;5.928;2022-08-19T08:12:48;43.22;;;35.78;;
66946;SDS011;53853;51.982;5.928;2022-08-19T08:15:19;51.40;;;43.53;;
66946;SDS011;53853;51.982;5.928;2022-08-19T08:17:49;56.03;;;47.15;;
66946;SDS011;53853;51.982;5.928;2022-08-19T08:20:18;41.92;;;37.58;;
66946;SDS011;53853;51.982;5.928;2022-08-19T08:22:48;44.35;;;39.58;;
66946;SDS011;53853;51.982;5.928;2022-08-19T08:25:31;45.60;;;40.22;;
66946;SDS011;53853;51.982;5.928;2022-08-19T08:28:04;40.53;;;36.17;;
66946;SDS011;53853;51.982;5.928;2022-08-19T08:30:34;54.15;;;46.60;;
66946;SDS011;53853;51.982;5.928;2022-08-19T08:33:07;53.67;;;43.47;;
66946;SDS011;53853;51.982;5.928;2022-08-19T08:35:37;36.13;;;32.28;;
66946;SDS011;53853;51.982;5.928;2022-08-19T08:38:11;58.15;;;50.42;;
66946;SDS011;53853;51.982;5.928;2022-08-19T08:40:42;42.67;;;38.25;;
66946;SDS011;53853;51.982;5.928;2022-08-19T08:43:22;45.05;;;40.15;;
66946;SDS011;53853;51.982;5.928;2022-08-19T08:45:59;47.40;;;42.30;;
66946;SDS011;53853;51.982;5.928;2022-08-19T08:48:37;47.05;;;40.45;;
66946;SDS011;53853;51.982;5.928;2022-08-19T08:51:14;39.42;;;34.95;;
66946;SDS011;53853;51.982;5.928;2022-08-19T08:53:47;33.40;;;29.95;;
66946;SDS011;53853;51.982;5.928;2022-08-19T08:56:20;36.72;;;32.60;;
66946;SDS011;53853;51.982;5.928;2022-08-19T08:58:54;30.63;;;27.42;;
66946;SDS011;53853;51.982;5.928;2022-08-19T09:01:27;41.03;;;36.67;;
66946;SDS011;53853;51.982;5.928;2022-08-19T09:03:57;35.22;;;29.65;;
66946;SDS011;53853;51.982;5.928;2022-08-19T09:06:29;27.92;;;24.23;;
66946;SDS011;53853;51.982;5.928;2022-08-19T09:09:09;42.03;;;33.55;;
66946;SDS011;53853;51.982;5.928;2022-08-19T09:11:52;38.05;;;33.95;;
66946;SDS011;53853;51.982;5.928;2022-08-19T09:14:38;26.63;;;23.88;;
66946;SDS011;53853;51.982;5.928;2022-08-19T09:17:14;27.77;;;23.40;;
66946;SDS011;53853;51.982;5.928;2022-08-19T09:19:49;32.97;;;29.30;;
66946;SDS011;53853;51.982;5.928;2022-08-19T09:22:21;30.73;;;26.02;;
66946;SDS011;53853;51.982;5.928;2022-08-19T09:24:52;32.97;;;28.23;;
66946;SDS011;53853;51.982;5.928;2022-08-19T09:27:24;38.15;;;32.55;;
66946;SDS011;53853;51.982;5.928;2022-08-19T09:29:57;36.78;;;31.20;;
66946;SDS011;53853;51.982;5.928;2022-08-19T09:32:27;33.58;;;29.95;;
66946;SDS011;53853;51.982;5.928;2022-08-19T09:34:57;35.42;;;31.50;;
66946;SDS011;53853;51.982;5.928;2022-08-19T09:37:27;42.10;;;33.92;;
66946;SDS011;53853;51.982;5.928;2022-08-19T09:39:57;37.83;;;33.22;;
66946;SDS011;53853;51.982;5.928;2022-08-19T09:42:26;36.45;;;30.83;;
66946;SDS011;53853;51.982;5.928;2022-08-19T09:44:59;28.90;;;25.80;;
66946;SDS011;53853;51.982;5.928;2022-08-19T09:47:29;29.65;;;24.08;;
66946;SDS011;53853;51.982;5.928;2022-08-19T09:50:02;33.88;;;30.02;;
66946;SDS011;53853;51.982;5.928;2022-08-19T09:52:32;36.03;;;30.25;;
66946;SDS011;53853;51.982;5.928;2022-08-19T09:55:03;31.63;;;26.38;;
66946;SDS011;53853;51.982;5.928;2022-08-19T09:57:34;35.88;;;30.13;;
66946;SDS011;53853;51.982;5.928;2022-08-19T10:00:08;29.88;;;24.60;;
66946;SDS011;53853;51.982;5.928;2022-08-19T10:02:38;32.08;;;26.92;;
66946;SDS011;53853;51.982;5.928;2022-08-19T10:05:08;28.50;;;23.02;;
66946;SDS011;53853;51.982;5.928;2022-08-19T10:07:50;22.67;;;20.05;;
66946;SDS011;53853;51.982;5.928;2022-08-19T10:10:20;34.08;;;27.02;;
66946;SDS011;53853;51.982;5.928;2022-08-19T10:12:50;23.45;;;19.38;;
66946;SDS011;53853;51.982;5.928;2022-08-19T10:15:24;34.90;;;26.58;;
66946;SDS011;53853;51.982;5.928;2022-08-19T10:17:54;28.50;;;23.27;;
66946;SDS011;53853;51.982;5.928;2022-08-19T10:20:25;31.15;;;25.27;;
66946;SDS011;53853;51.982;5.928;2022-08-19T10:22:55;31.40;;;25.33;;
66946;SDS011;53853;51.982;5.928;2022-08-19T10:25:25;25.55;;;19.55;;
66946;SDS011;53853;51.982;5.928;2022-08-19T10:27:55;28.50;;;21.25;;
66946;SDS011;53853;51.982;5.928;2022-08-19T10:30:28;27.58;;;22.60;;
66946;SDS011;53853;51.982;5.928;2022-08-19T10:32:58;28.25;;;21.75;;
66946;SDS011;53853;51.982;5.928;2022-08-19T10:35:27;25.63;;;21.58;;
66946;SDS011;53853;51.982;5.928;2022-08-19T10:37:58;32.13;;;27.98;;
66946;SDS011;53853;51.982;5.928;2022-08-19T10:40:28;29.83;;;26.48;;
66946;SDS011;53853;51.982;5.928;2022-08-19T10:42:58;27.40;;;23.73;;
66946;SDS011;53853;51.982;5.928;2022-08-19T10:45:30;23.17;;;19.33;;
66946;SDS011;53853;51.982;5.928;2022-08-19T10:48:00;33.88;;;27.75;;
66946;SDS011;53853;51.982;5.928;2022-08-19T10:50:30;28.92;;;23.95;;
66946;SDS011;53853;51.982;5.928;2022-08-19T10:53:13;30.45;;;24.38;;
66946;SDS011;53853;51.982;5.928;2022-08-19T10:55:44;30.38;;;25.33;;
66946;SDS011;53853;51.982;5.928;2022-08-19T10:58:26;28.95;;;25.80;;
66946;SDS011;53853;51.982;5.928;2022-08-19T11:00:58;28.10;;;22.27;;
66946;SDS011;53853;51.982;5.928;2022-08-19T11:03:28;31.13;;;24.65;;
66946;SDS011;53853;51.982;5.928;2022-08-19T11:05:59;28.45;;;23.80;;
66946;SDS011;53853;51.982;5.928;2022-08-19T11:08:29;26.83;;;21.80;;
66946;SDS011;53853;51.982;5.928;2022-08-19T11:11:00;26.80;;;22.27;;
66946;SDS011;53853;51.982;5.928;2022-08-19T11:13:31;30.20;;;24.00;;
66946;SDS011;53853;51.982;5.928;2022-08-19T11:16:07;24.23;;;21.30;;
66946;SDS011;53853;51.982;5.928;2022-08-19T11:18:40;22.67;;;19.25;;
66946;SDS011;53853;51.982;5.928;2022-08-19T11:21:14;21.50;;;18.55;;
66946;SDS011;53853;51.982;5.928;2022-08-19T11:23:46;21.95;;;19.58;;
66946;SDS011;53853;51.982;5.928;2022-08-19T11:26:18;24.52;;;20.08;;
66946;SDS011;53853;51.982;5.928;2022-08-19T11:28:50;25.08;;;22.17;;
66946;SDS011;53853;51.982;5.928;2022-08-19T11:31:23;23.25;;;19.63;;
66946;SDS011;53853;51.982;5.928;2022-08-19T11:33:56;24.10;;;19.52;;
66946;SDS011;53853;51.982;5.928;2022-08-19T11:36:29;21.17;;;17.90;;
66946;SDS011;53853;51.982;5.928;2022-08-19T11:39:03;23.27;;;19.77;;
66946;SDS011;53853;51.982;5.928;2022-08-19T11:41:33;26.65;;;21.85;;
66946;SDS011;53853;51.982;5.928;2022-08-19T11:44:04;24.23;;;18.05;;
66946;SDS011;53853;51.982;5.928;2022-08-19T11:46:37;25.45;;;19.58;;
66946;SDS011;53853;51.982;5.928;2022-08-19T11:49:12;27.40;;;23.42;;
66946;SDS011;53853;51.982;5.928;2022-08-19T11:51:44;19.60;;;17.42;;
66946;SDS011;53853;51.982;5.928;2022-08-19T11:54:16;20.55;;;18.02;;
66946;SDS011;53853;51.982;5.928;2022-08-19T11:56:46;17.92;;;15.07;;
66946;SDS011;53853;51.982;5.928;2022-08-19T11:59:16;25.92;;;20.63;;
66946;SDS011;53853;51.982;5.928;2022-08-19T12:01:48;25.63;;;21.85;;
66946;SDS011;53853;51.982;5.928;2022-08-19T12:04:18;23.67;;;16.00;;
66946;SDS011;53853;51.982;5.928;2022-08-19T12:06:48;19.45;;;14.57;;
66946;SDS011;53853;51.982;5.928;2022-08-19T12:09:18;21.42;;;19.05;;
66946;SDS011;53853;51.982;5.928;2022-08-19T12:11:48;24.50;;;19.67;;
66946;SDS011;53853;51.982;5.928;2022-08-19T12:14:19;15.55;;;13.85;;
66946;SDS011;53853;51.982;5.928;2022-08-19T12:16:52;17.77;;;13.90;;
66946;SDS011;53853;51.982;5.928;2022-08-19T12:19:22;14.35;;;11.98;;
66946;SDS011;53853;51.982;5.928;2022-08-19T12:21:52;19.80;;;16.73;;
66946;SDS011;53853;51.982;5.928;2022-08-19T12:24:27;16.60;;;13.70;;
66946;SDS011;53853;51.982;5.928;2022-08-19T12:26:59;21.08;;;18.85;;
66946;SDS011;53853;51.982;5.928;2022-08-19T12:29:29;17.55;;;14.57;;
66946;SDS011;53853;51.982;5.928;2022-08-19T12:32:02;20.40;;;18.33;;
66946;SDS011;53853;51.982;5.928;2022-08-19T12:37:03;22.67;;;20.13;;
66946;SDS011;53853;51.982;5.928;2022-08-19T12:39:35;19.10;;;17.02;;
66946;SDS011;53853;51.982;5.928;2022-08-19T12:42:07;24.67;;;21.55;;
66946;SDS011;53853;51.982;5.928;2022-08-19T12:44:37;24.00;;;19.90;;
66946;SDS011;53853;51.982;5.928;2022-08-19T12:47:11;22.02;;;18.08;;
66946;SDS011;53853;51.982;5.928;2022-08-19T12:49:42;21.35;;;18.52;;
66946;SDS011;53853;51.982;5.928;2022-08-19T12:52:12;22.98;;;20.58;;
66946;SDS011;53853;51.982;5.928;2022-08-19T12:54:46;26.15;;;23.35;;
66946;SDS011;53853;51.982;5.928;2022-08-19T12:57:17;20.67;;;18.52;;
66946;SDS011;53853;51.982;5.928;2022-08-19T12:59:46;26.75;;;21.63;;
66946;SDS011;53853;51.982;5.928;2022-08-19T13:02:22;26.02;;;23.00;;
66946;SDS011;53853;51.982;5.928;2022-08-19T13:04:52;22.95;;;20.55;;
66946;SDS011;53853;51.982;5.928;2022-08-19T13:07:22;25.13;;;21.92;;
66946;SDS011;53853;51.982;5.928;2022-08-19T13:09:52;22.42;;;20.02;;
66946;SDS011;53853;51.982;5.928;2022-08-19T13:12:22;28.60;;;25.42;;
66946;SDS011;53853;51.982;5.928;2022-08-19T13:14:52;30.00;;;25.27;;
66946;SDS011;53853;51.982;5.928;2022-08-19T13:17:26;26.90;;;24.10;;
66946;SDS011;53853;51.982;5.928;2022-08-19T13:19:55;14.53;;;13.13;;
66946;SDS011;53853;51.982;5.928;2022-08-19T13:22:25;24.88;;;22.00;;
66946;SDS011;53853;51.982;5.928;2022-08-19T13:24:55;26.73;;;23.73;;
66946;SDS011;53853;51.982;5.928;2022-08-19T13:27:25;26.50;;;21.95;;
66946;SDS011;53853;51.982;5.928;2022-08-19T13:29:55;27.35;;;24.45;;
66946;SDS011;53853;51.982;5.928;2022-08-19T13:32:40;22.42;;;20.02;;
66946;SDS011;53853;51.982;5.928;2022-08-19T13:35:22;19.35;;;17.35;;
66946;SDS011;53853;51.982;5.928;2022-08-19T13:37:52;20.00;;;17.92;;
66946;SDS011;53853;51.982;5.928;2022-08-19T13:40:23;17.17;;;15.38;;
66946;SDS011;53853;51.982;5.928;2022-08-19T13:42:55;22.00;;;18.45;;
66946;SDS011;53853;51.982;5.928;2022-08-19T13:45:26;16.77;;;15.07;;
66946;SDS011;53853;51.982;5.928;2022-08-19T13:48:01;18.58;;;16.48;;
66946;SDS011;53853;51.982;5.928;2022-08-19T13:50:35;23.75;;;21.27;;
66946;SDS011;53853;51.982;5.928;2022-08-19T13:53:08;18.80;;;16.90;;
66946;SDS011;53853;51.982;5.928;2022-08-19T13:55:39;23.00;;;20.70;;
66946;SDS011;53853;51.982;5.928;2022-08-19T13:58:10;19.67;;;17.13;;
66946;SDS011;53853;51.982;5.928;2022-08-19T14:00:41;14.05;;;12.73;;
66946;SDS011;53853;51.982;5.928;2022-08-19T14:03:16;22.60;;;20.25;;
66946;SDS011;53853;51.982;5.928;2022-08-19T14:05:46;23.07;;;20.43;;
66946;SDS011;53853;51.982;5.928;2022-08-19T14:08:16;16.08;;;14.20;;
66946;SDS011;53853;51.982;5.928;2022-08-19T14:10:46;17.92;;;16.15;;
66946;SDS011;53853;51.982;5.928;2022-08-19T14:13:18;22.50;;;19.67;;
66946;SDS011;53853;51.982;5.928;2022-08-19T14:15:50;20.00;;;17.08;;
66946;SDS011;53853;51.982;5.928;2022-08-19T14:18:23;27.30;;;24.40;;
66946;SDS011;53853;51.982;5.928;2022-08-19T14:20:53;26.38;;;23.58;;
66946;SDS011;53853;51.982;5.928;2022-08-19T14:23:22;21.70;;;19.40;;
66946;SDS011;53853;51.982;5.928;2022-08-19T14:25:52;21.80;;;19.60;;
66946;SDS011;53853;51.982;5.928;2022-08-19T14:28:30;24.95;;;22.40;;
66946;SDS011;53853;51.982;5.928;2022-08-19T14:31:00;26.20;;;23.40;;
66946;SDS011;53853;51.982;5.928;2022-08-19T14:33:33;20.02;;;18.13;;
66946;SDS011;53853;51.982;5.928;2022-08-19T14:36:03;19.73;;;17.52;;
66946;SDS011;53853;51.982;5.928;2022-08-19T14:38:34;22.20;;;19.40;;
66946;SDS011;53853;51.982;5.928;2022-08-19T14:41:07;26.75;;;23.77;;
66946;SDS011;53853;51.982;5.928;2022-08-19T14:43:39;25.33;;;22.60;;
66946;SDS011;53853;51.982;5.928;2022-08-19T14:46:11;18.85;;;16.95;;
66946;SDS011;53853;51.982;5.928;2022-08-19T14:48:44;26.88;;;21.73;;
66946;SDS011;53853;51.982;5.928;2022-08-19T14:51:13;20.83;;;18.27;;
66946;SDS011;53853;51.982;5.928;2022-08-19T14:53:44;17.13;;;14.40;;
66946;SDS011;53853;51.982;5.928;2022-08-19T14:56:15;24.08;;;19.83;;
66946;SDS011;53853;51.982;5.928;2022-08-19T14:58:47;22.05;;;18.70;;
66946;SDS011;53853;51.982;5.928;2022-08-19T15:01:18;21.08;;;17.50;;
66946;SDS011;53853;51.982;5.928;2022-08-19T15:03:51;18.17;;;14.55;;
66946;SDS011;53853;51.982;5.928;2022-08-19T15:06:21;11.83;;;9.80;;